sensor_id;sensor_type;location;lat;lon;timestamp;temperature;humidity
76211;DHT22;65003;49.518;11.280;2023-08-01T00:02:21;18.00;99.90
76211;DHT22;65003;49.518;11.280;2023-08-01T00:04:48;17.90;99.90
76211;DHT22;65003;49.518;11.280;2023-08-01T00:07:14;17.80;99.90
76211;DHT22;65003;49.518;11.280;2023-08-01T00:09:41;17.80;99.90
76211;DHT22;65003;49.518;11.280;2023-08-01T00:12:08;17.80;99.90
76211;DHT22;65003;49.518;11.280;2023-08-01T00:14:35;17.80;99.90
76211;DHT22;65003;49.518;11.280;2023-08-01T00:17:01;17.80;99.90
76211;DHT22;65003;49.518;11.280;2023-08-01T00:19:27;17.80;99.90
76211;DHT22;65003;49.518;11.280;2023-08-01T00:21:54;17.90;99.90
76211;DHT22;65003;49.518;11.280;2023-08-01T00:24:21;18.00;99.90
76211;DHT22;65003;49.518;11.280;2023-08-01T00:26:47;18.00;99.90
76211;DHT22;65003;49.518;11.280;2023-08-01T00:29:14;18.00;99.90
76211;DHT22;65003;49.518;11.280;2023-08-01T00:31:40;18.10;99.90
76211;DHT22;65003;49.518;11.280;2023-08-01T00:34:07;18.20;99.90
76211;DHT22;65003;49.518;11.280;2023-08-01T00:36:33;18.30;99.90
76211;DHT22;65003;49.518;11.280;2023-08-01T00:39:00;18.20;99.90
76211;DHT22;65003;49.518;11.280;2023-08-01T00:41:27;18.20;99.90
76211;DHT22;65003;49.518;11.280;2023-08-01T00:43:53;18.10;99.90
76211;DHT22;65003;49.518;11.280;2023-08-01T00:46:44;18.00;99.90
76211;DHT22;65003;49.518;11.280;2023-08-01T00:49:24;17.90;99.90
76211;DHT22;65003;49.518;11.280;2023-08-01T00:54:47;17.90;99.90
76211;DHT22;65003;49.518;11.280;2023-08-01T00:57:19;18.10;99.90
76211;DHT22;65003;49.518;11.280;2023-08-01T01:02:25;18.10;99.90
76211;DHT22;65003;49.518;11.280;2023-08-01T01:04:56;18.20;99.90
76211;DHT22;65003;49.518;11.280;2023-08-01T01:10:10;18.10;99.90
76211;DHT22;65003;49.518;11.280;2023-08-01T01:12:38;18.00;99.90
76211;DHT22;65003;49.518;11.280;2023-08-01T01:23:38;17.90;99.90
76211;DHT22;65003;49.518;11.280;2023-08-01T01:28:54;17.70;99.90
76211;DHT22;65003;49.518;11.280;2023-08-01T01:31:25;17.70;99.90
76211;DHT22;65003;49.518;11.280;2023-08-01T01:33:55;17.70;99.90
76211;DHT22;65003;49.518;11.280;2023-08-01T01:36:26;17.60;99.90
76211;DHT22;65003;49.518;11.280;2023-08-01T01:38:58;17.50;99.90
76211;DHT22;65003;49.518;11.280;2023-08-01T01:41:30;17.60;99.90
76211;DHT22;65003;49.518;11.280;2023-08-01T01:43:57;17.60;99.90
76211;DHT22;65003;49.518;11.280;2023-08-01T01:46:30;17.50;99.90
76211;DHT22;65003;49.518;11.280;2023-08-01T01:48:57;17.50;99.90
76211;DHT22;65003;49.518;11.280;2023-08-01T01:51:38;17.50;99.90
76211;DHT22;65003;49.518;11.280;2023-08-01T01:54:07;17.50;99.90
76211;DHT22;65003;49.518;11.280;2023-08-01T01:56:34;17.50;99.90
76211;DHT22;65003;49.518;11.280;2023-08-01T02:04:45;17.50;99.90
76211;DHT22;65003;49.518;11.280;2023-08-01T02:07:22;17.40;99.90
76211;DHT22;65003;49.518;11.280;2023-08-01T02:12:38;17.40;99.90
76211;DHT22;65003;49.518;11.280;2023-08-01T02:15:12;17.40;99.90
76211;DHT22;65003;49.518;11.280;2023-08-01T02:17:44;17.40;99.90
76211;DHT22;65003;49.518;11.280;2023-08-01T02:20:11;17.40;99.90
76211;DHT22;65003;49.518;11.280;2023-08-01T02:22:38;17.40;99.90
76211;DHT22;65003;49.518;11.280;2023-08-01T02:25:04;17.40;99.90
76211;DHT22;65003;49.518;11.280;2023-08-01T02:27:31;17.30;99.90
76211;DHT22;65003;49.518;11.280;2023-08-01T02:29:59;17.30;99.90
76211;DHT22;65003;49.518;11.280;2023-08-01T02:35:35;17.30;99.90
76211;DHT22;65003;49.518;11.280;2023-08-01T02:38:14;17.40;99.90
76211;DHT22;65003;49.518;11.280;2023-08-01T02:40:51;17.40;99.90
76211;DHT22;65003;49.518;11.280;2023-08-01T02:43:18;17.40;99.90
76211;DHT22;65003;49.518;11.280;2023-08-01T02:45:44;17.40;99.90
76211;DHT22;65003;49.518;11.280;2023-08-01T02:51:06;17.40;99.90
76211;DHT22;65003;49.518;11.280;2023-08-01T02:53:37;17.40;99.90
76211;DHT22;65003;49.518;11.280;2023-08-01T02:56:10;17.40;99.90
76211;DHT22;65003;49.518;11.280;2023-08-01T02:58:42;17.40;99.90
76211;DHT22;65003;49.518;11.280;2023-08-01T03:01:13;17.40;99.90
76211;DHT22;65003;49.518;11.280;2023-08-01T03:09:17;17.40;99.90
76211;DHT22;65003;49.518;11.280;2023-08-01T03:11:44;17.40;99.90
76211;DHT22;65003;49.518;11.280;2023-08-01T03:14:10;17.40;99.90
76211;DHT22;65003;49.518;11.280;2023-08-01T03:19:43;16.80;99.90
76211;DHT22;65003;49.518;11.280;2023-08-01T03:22:15;17.30;99.90
76211;DHT22;65003;49.518;11.280;2023-08-01T03:24:45;17.30;99.90
76211;DHT22;65003;49.518;11.280;2023-08-01T03:27:21;17.30;99.90
76211;DHT22;65003;49.518;11.280;2023-08-01T03:29:47;17.30;99.90
76211;DHT22;65003;49.518;11.280;2023-08-01T03:37:53;17.20;99.90
76211;DHT22;65003;49.518;11.280;2023-08-01T03:40:19;17.30;99.90
76211;DHT22;65003;49.518;11.280;2023-08-01T03:51:33;17.20;99.90
76211;DHT22;65003;49.518;11.280;2023-08-01T03:54:09;17.20;99.90
76211;DHT22;65003;49.518;11.280;2023-08-01T03:56:35;17.20;99.90
76211;DHT22;65003;49.518;11.280;2023-08-01T03:59:19;18.20;99.90
76211;DHT22;65003;49.518;11.280;2023-08-01T04:01:46;17.20;99.90
76211;DHT22;65003;49.518;11.280;2023-08-01T04:04:12;17.20;99.90
76211;DHT22;65003;49.518;11.280;2023-08-01T04:06:41;17.20;99.90
76211;DHT22;65003;49.518;11.280;2023-08-01T04:09:16;17.20;99.90
76211;DHT22;65003;49.518;11.280;2023-08-01T04:17:18;17.10;99.90
76211;DHT22;65003;49.518;11.280;2023-08-01T04:19:45;17.20;99.90
76211;DHT22;65003;49.518;11.280;2023-08-01T04:22:31;17.10;99.90
76211;DHT22;65003;49.518;11.280;2023-08-01T04:33:08;17.10;99.90
76211;DHT22;65003;49.518;11.280;2023-08-01T04:38:43;17.40;99.90
76211;DHT22;65003;49.518;11.280;2023-08-01T04:41:45;17.10;99.90
76211;DHT22;65003;49.518;11.280;2023-08-01T04:47:11;17.20;99.90
76211;DHT22;65003;49.518;11.280;2023-08-01T04:49:41;17.20;99.90
76211;DHT22;65003;49.518;11.280;2023-08-01T05:00:23;17.10;99.90
76211;DHT22;65003;49.518;11.280;2023-08-01T05:03:04;17.10;99.90
76211;DHT22;65003;49.518;11.280;2023-08-01T05:05:37;17.10;99.90
76211;DHT22;65003;49.518;11.280;2023-08-01T05:08:03;17.10;99.90
76211;DHT22;65003;49.518;11.280;2023-08-01T05:10:30;17.20;99.90
76211;DHT22;65003;49.518;11.280;2023-08-01T05:12:56;17.20;99.90
76211;DHT22;65003;49.518;11.280;2023-08-01T05:15:34;17.30;99.90
76211;DHT22;65003;49.518;11.280;2023-08-01T05:18:01;17.40;99.90
76211;DHT22;65003;49.518;11.280;2023-08-01T05:20:33;17.40;99.90
76211;DHT22;65003;49.518;11.280;2023-08-01T05:22:59;17.40;99.90
76211;DHT22;65003;49.518;11.280;2023-08-01T05:25:38;17.50;99.90
76211;DHT22;65003;49.518;11.280;2023-08-01T05:28:27;17.50;99.90
76211;DHT22;65003;49.518;11.280;2023-08-01T05:33:39;17.50;99.90
76211;DHT22;65003;49.518;11.280;2023-08-01T05:36:05;17.50;99.90
76211;DHT22;65003;49.518;11.280;2023-08-01T05:38:37;17.50;99.90
76211;DHT22;65003;49.518;11.280;2023-08-01T05:41:03;17.50;99.90
76211;DHT22;65003;49.518;11.280;2023-08-01T05:43:31;17.60;99.90
76211;DHT22;65003;49.518;11.280;2023-08-01T05:45:57;17.70;99.90
76211;DHT22;65003;49.518;11.280;2023-08-01T05:48:25;17.70;99.90
76211;DHT22;65003;49.518;11.280;2023-08-01T05:50:54;17.70;99.90
76211;DHT22;65003;49.518;11.280;2023-08-01T05:53:21;17.70;99.90
76211;DHT22;65003;49.518;11.280;2023-08-01T05:58:34;17.80;99.90
76211;DHT22;65003;49.518;11.280;2023-08-01T06:01:13;17.80;99.90
76211;DHT22;65003;49.518;11.280;2023-08-01T06:06:39;17.80;99.90
76211;DHT22;65003;49.518;11.280;2023-08-01T06:09:10;17.90;99.90
76211;DHT22;65003;49.518;11.280;2023-08-01T06:14:38;17.90;99.90
76211;DHT22;65003;49.518;11.280;2023-08-01T06:17:20;17.90;99.90
76211;DHT22;65003;49.518;11.280;2023-08-01T06:22:55;17.90;99.90
76211;DHT22;65003;49.518;11.280;2023-08-01T06:25:27;18.00;99.90
76211;DHT22;65003;49.518;11.280;2023-08-01T06:28:18;17.90;99.90
76211;DHT22;65003;49.518;11.280;2023-08-01T06:33:32;18.00;99.90
76211;DHT22;65003;49.518;11.280;2023-08-01T06:38:47;18.10;99.90
76211;DHT22;65003;49.518;11.280;2023-08-01T06:41:49;18.10;99.90
76211;DHT22;65003;49.518;11.280;2023-08-01T06:44:39;18.10;99.90
76211;DHT22;65003;49.518;11.280;2023-08-01T06:47:06;18.20;99.90
76211;DHT22;65003;49.518;11.280;2023-08-01T06:52:27;18.20;99.90
76211;DHT22;65003;49.518;11.280;2023-08-01T06:57:38;18.30;99.90
76211;DHT22;65003;49.518;11.280;2023-08-01T07:00:06;18.20;99.90
76211;DHT22;65003;49.518;11.280;2023-08-01T07:02:42;18.30;99.90
76211;DHT22;65003;49.518;11.280;2023-08-01T07:05:09;18.20;99.90
76211;DHT22;65003;49.518;11.280;2023-08-01T07:07:46;18.20;99.90
76211;DHT22;65003;49.518;11.280;2023-08-01T07:10:12;18.20;99.90
76211;DHT22;65003;49.518;11.280;2023-08-01T07:12:40;18.20;99.90
76211;DHT22;65003;49.518;11.280;2023-08-01T07:15:11;18.20;99.90
76211;DHT22;65003;49.518;11.280;2023-08-01T07:20:31;18.30;99.90
76211;DHT22;65003;49.518;11.280;2023-08-01T07:23:03;18.40;99.90
76211;DHT22;65003;49.518;11.280;2023-08-01T07:25:31;18.40;99.90
76211;DHT22;65003;49.518;11.280;2023-08-01T07:28:18;18.40;99.90
76211;DHT22;65003;49.518;11.280;2023-08-01T07:30:48;18.30;99.90
76211;DHT22;65003;49.518;11.280;2023-08-01T07:36:00;18.40;99.90
76211;DHT22;65003;49.518;11.280;2023-08-01T07:38:40;18.40;99.90
76211;DHT22;65003;49.518;11.280;2023-08-01T07:41:11;18.40;99.90
76211;DHT22;65003;49.518;11.280;2023-08-01T07:46:24;18.40;99.90
76211;DHT22;65003;49.518;11.280;2023-08-01T07:51:35;18.40;99.90
76211;DHT22;65003;49.518;11.280;2023-08-01T07:54:05;18.40;99.90
76211;DHT22;65003;49.518;11.280;2023-08-01T07:59:25;18.40;99.90
76211;DHT22;65003;49.518;11.280;2023-08-01T08:01:57;18.40;99.90
76211;DHT22;65003;49.518;11.280;2023-08-01T08:05:02;18.40;99.90
76211;DHT22;65003;49.518;11.280;2023-08-01T08:07:21;18.30;99.90
76211;DHT22;65003;49.518;11.280;2023-08-01T08:09:48;18.30;99.90
76211;DHT22;65003;49.518;11.280;2023-08-01T08:12:24;18.30;99.90
76211;DHT22;65003;49.518;11.280;2023-08-01T08:17:42;18.40;99.90
76211;DHT22;65003;49.518;11.280;2023-08-01T08:20:12;18.30;99.90
76211;DHT22;65003;49.518;11.280;2023-08-01T08:25:38;18.30;99.90
76211;DHT22;65003;49.518;11.280;2023-08-01T08:30:58;18.30;99.90
76211;DHT22;65003;49.518;11.280;2023-08-01T08:36:09;18.30;99.90
76211;DHT22;65003;49.518;11.280;2023-08-01T08:38:43;18.20;99.90
76211;DHT22;65003;49.518;11.280;2023-08-01T08:41:13;18.20;99.90
76211;DHT22;65003;49.518;11.280;2023-08-01T08:49:01;18.10;99.90
76211;DHT22;65003;49.518;11.280;2023-08-01T08:51:39;18.10;99.90
76211;DHT22;65003;49.518;11.280;2023-08-01T08:54:09;18.00;99.90
76211;DHT22;65003;49.518;11.280;2023-08-01T08:56:38;18.00;99.90
76211;DHT22;65003;49.518;11.280;2023-08-01T08:59:08;18.00;99.90
76211;DHT22;65003;49.518;11.280;2023-08-01T09:01:42;17.90;99.90
76211;DHT22;65003;49.518;11.280;2023-08-01T09:04:12;17.90;99.90
76211;DHT22;65003;49.518;11.280;2023-08-01T09:06:53;17.90;99.90
76211;DHT22;65003;49.518;11.280;2023-08-01T09:09:25;17.90;99.90
76211;DHT22;65003;49.518;11.280;2023-08-01T09:11:55;17.90;99.90
76211;DHT22;65003;49.518;11.280;2023-08-01T09:14:24;17.90;99.90
76211;DHT22;65003;49.518;11.280;2023-08-01T09:17:04;17.90;99.90
76211;DHT22;65003;49.518;11.280;2023-08-01T09:19:24;17.80;99.90
76211;DHT22;65003;49.518;11.280;2023-08-01T09:21:50;17.80;99.90
76211;DHT22;65003;49.518;11.280;2023-08-01T09:27:04;17.90;99.90
76211;DHT22;65003;49.518;11.280;2023-08-01T09:30:04;18.00;99.90
76211;DHT22;65003;49.518;11.280;2023-08-01T09:35:23;18.30;99.90
76211;DHT22;65003;49.518;11.280;2023-08-01T09:43:39;18.60;99.90
76211;DHT22;65003;49.518;11.280;2023-08-01T09:46:06;18.50;99.90
76211;DHT22;65003;49.518;11.280;2023-08-01T09:51:25;18.50;99.90
76211;DHT22;65003;49.518;11.280;2023-08-01T09:56:56;18.60;99.90
76211;DHT22;65003;49.518;11.280;2023-08-01T09:59:24;18.70;99.90
76211;DHT22;65003;49.518;11.280;2023-08-01T10:02:11;18.70;99.90
76211;DHT22;65003;49.518;11.280;2023-08-01T10:07:32;18.70;99.90
76211;DHT22;65003;49.518;11.280;2023-08-01T10:09:59;18.60;99.90
76211;DHT22;65003;49.518;11.280;2023-08-01T10:12:38;18.60;99.90
76211;DHT22;65003;49.518;11.280;2023-08-01T10:15:25;18.60;99.90
76211;DHT22;65003;49.518;11.280;2023-08-01T10:18:05;18.70;99.90
76211;DHT22;65003;49.518;11.280;2023-08-01T10:20:40;18.80;99.90
76211;DHT22;65003;49.518;11.280;2023-08-01T10:23:07;18.90;99.90
76211;DHT22;65003;49.518;11.280;2023-08-01T10:25:38;19.00;99.90
76211;DHT22;65003;49.518;11.280;2023-08-01T10:31:06;19.10;99.90
76211;DHT22;65003;49.518;11.280;2023-08-01T10:33:32;19.10;99.90
76211;DHT22;65003;49.518;11.280;2023-08-01T10:41:34;18.90;99.90
76211;DHT22;65003;49.518;11.280;2023-08-01T10:44:07;19.00;99.90
76211;DHT22;65003;49.518;11.280;2023-08-01T10:49:18;19.10;99.90
76211;DHT22;65003;49.518;11.280;2023-08-01T10:51:45;19.00;99.90
76211;DHT22;65003;49.518;11.280;2023-08-01T11:05:24;19.30;99.90
76211;DHT22;65003;49.518;11.280;2023-08-01T11:10:48;19.60;99.90
76211;DHT22;65003;49.518;11.280;2023-08-01T11:16:12;20.10;99.90
76211;DHT22;65003;49.518;11.280;2023-08-01T11:18:45;20.30;99.90
76211;DHT22;65003;49.518;11.280;2023-08-01T11:21:25;20.40;99.90
76211;DHT22;65003;49.518;11.280;2023-08-01T11:23:50;20.30;99.90
76211;DHT22;65003;49.518;11.280;2023-08-01T11:26:23;20.20;99.90
76211;DHT22;65003;49.518;11.280;2023-08-01T11:29:00;20.40;99.90
76211;DHT22;65003;49.518;11.280;2023-08-01T11:31:27;20.70;99.90
76211;DHT22;65003;49.518;11.280;2023-08-01T11:34:01;21.00;99.90
76211;DHT22;65003;49.518;11.280;2023-08-01T11:36:28;21.20;99.40
76211;DHT22;65003;49.518;11.280;2023-08-01T11:41:59;21.30;98.90
76211;DHT22;65003;49.518;11.280;2023-08-01T11:44:26;21.20;98.90
76211;DHT22;65003;49.518;11.280;2023-08-01T11:46:59;20.90;99.20
76211;DHT22;65003;49.518;11.280;2023-08-01T11:55:05;20.40;99.70
76211;DHT22;65003;49.518;11.280;2023-08-01T11:57:32;20.20;99.30
76211;DHT22;65003;49.518;11.280;2023-08-01T12:08:09;19.70;99.90
76211;DHT22;65003;49.518;11.280;2023-08-01T12:10:38;19.60;99.90
76211;DHT22;65003;49.518;11.280;2023-08-01T12:18:38;19.30;99.90
76211;DHT22;65003;49.518;11.280;2023-08-01T12:21:29;19.30;99.90
76211;DHT22;65003;49.518;11.280;2023-08-01T12:24:08;19.40;99.90
76211;DHT22;65003;49.518;11.280;2023-08-01T12:26:37;19.60;99.90
76211;DHT22;65003;49.518;11.280;2023-08-01T12:29:06;19.60;99.90
76211;DHT22;65003;49.518;11.280;2023-08-01T12:31:34;19.80;99.90
76211;DHT22;65003;49.518;11.280;2023-08-01T12:42:22;20.60;99.80
76211;DHT22;65003;49.518;11.280;2023-08-01T12:47:37;20.90;98.60
76211;DHT22;65003;49.518;11.280;2023-08-01T12:50:07;21.10;98.50
76211;DHT22;65003;49.518;11.280;2023-08-01T12:58:09;20.90;95.70
76211;DHT22;65003;49.518;11.280;2023-08-01T13:00:41;20.80;95.20
76211;DHT22;65003;49.518;11.280;2023-08-01T13:03:11;20.90;95.50
76211;DHT22;65003;49.518;11.280;2023-08-01T13:05:37;21.00;94.40
76211;DHT22;65003;49.518;11.280;2023-08-01T13:08:07;21.00;93.10
76211;DHT22;65003;49.518;11.280;2023-08-01T13:10:33;21.00;93.40
76211;DHT22;65003;49.518;11.280;2023-08-01T13:13:05;20.90;93.20
76211;DHT22;65003;49.518;11.280;2023-08-01T13:18:20;20.70;91.70
76211;DHT22;65003;49.518;11.280;2023-08-01T13:20:46;20.70;91.30
76211;DHT22;65003;49.518;11.280;2023-08-01T13:23:23;20.50;90.70
76211;DHT22;65003;49.518;11.280;2023-08-01T13:25:49;20.40;90.50
76211;DHT22;65003;49.518;11.280;2023-08-01T13:28:20;20.30;91.10
76211;DHT22;65003;49.518;11.280;2023-08-01T13:30:52;20.30;91.40
76211;DHT22;65003;49.518;11.280;2023-08-01T13:36:09;20.00;91.20
76211;DHT22;65003;49.518;11.280;2023-08-01T13:38:36;19.90;91.30
76211;DHT22;65003;49.518;11.280;2023-08-01T13:41:03;19.80;91.00
76211;DHT22;65003;49.518;11.280;2023-08-01T13:43:33;19.80;91.00
76211;DHT22;65003;49.518;11.280;2023-08-01T13:49:04;20.00;90.90
76211;DHT22;65003;49.518;11.280;2023-08-01T13:51:36;20.30;91.50
76211;DHT22;65003;49.518;11.280;2023-08-01T13:59:34;20.90;86.80
76211;DHT22;65003;49.518;11.280;2023-08-01T14:02:01;20.80;86.30
76211;DHT22;65003;49.518;11.280;2023-08-01T14:04:28;20.50;86.90
76211;DHT22;65003;49.518;11.280;2023-08-01T14:06:59;20.40;89.30
76211;DHT22;65003;49.518;11.280;2023-08-01T14:09:26;20.30;90.20
76211;DHT22;65003;49.518;11.280;2023-08-01T14:12:04;20.20;90.00
76211;DHT22;65003;49.518;11.280;2023-08-01T14:14:32;20.10;90.90
76211;DHT22;65003;49.518;11.280;2023-08-01T14:22:41;19.70;93.90
76211;DHT22;65003;49.518;11.280;2023-08-01T14:25:11;19.40;94.80
76211;DHT22;65003;49.518;11.280;2023-08-01T14:27:47;19.20;95.70
76211;DHT22;65003;49.518;11.280;2023-08-01T14:30:16;19.20;96.90
76211;DHT22;65003;49.518;11.280;2023-08-01T14:32:46;19.20;97.20
76211;DHT22;65003;49.518;11.280;2023-08-01T14:35:39;19.40;97.20
76211;DHT22;65003;49.518;11.280;2023-08-01T14:38:15;19.50;97.00
76211;DHT22;65003;49.518;11.280;2023-08-01T14:40:54;19.60;97.20
76211;DHT22;65003;49.518;11.280;2023-08-01T14:43:27;19.70;97.20
76211;DHT22;65003;49.518;11.280;2023-08-01T14:46:01;19.90;97.50
76211;DHT22;65003;49.518;11.280;2023-08-01T14:48:28;19.80;97.70
76211;DHT22;65003;49.518;11.280;2023-08-01T14:51:05;19.60;97.40
76211;DHT22;65003;49.518;11.280;2023-08-01T14:53:41;19.40;97.20
76211;DHT22;65003;49.518;11.280;2023-08-01T14:59:28;19.80;97.90
76211;DHT22;65003;49.518;11.280;2023-08-01T15:05:05;19.60;97.80
76211;DHT22;65003;49.518;11.280;2023-08-01T15:07:36;19.60;97.10
76211;DHT22;65003;49.518;11.280;2023-08-01T15:13:02;19.70;96.80
76211;DHT22;65003;49.518;11.280;2023-08-01T15:18:16;19.90;96.00
76211;DHT22;65003;49.518;11.280;2023-08-01T15:23:29;20.10;95.60
76211;DHT22;65003;49.518;11.280;2023-08-01T15:28:49;20.10;94.40
76211;DHT22;65003;49.518;11.280;2023-08-01T15:31:25;20.10;94.60
76211;DHT22;65003;49.518;11.280;2023-08-01T15:33:53;20.10;94.70
76211;DHT22;65003;49.518;11.280;2023-08-01T15:36:25;20.10;94.20
76211;DHT22;65003;49.518;11.280;2023-08-01T15:41:41;20.20;94.00
76211;DHT22;65003;49.518;11.280;2023-08-01T15:44:08;20.30;94.20
76211;DHT22;65003;49.518;11.280;2023-08-01T15:46:35;20.30;93.50
76211;DHT22;65003;49.518;11.280;2023-08-01T15:49:01;20.30;93.30
76211;DHT22;65003;49.518;11.280;2023-08-01T15:54:21;20.40;93.70
76211;DHT22;65003;49.518;11.280;2023-08-01T15:56:50;20.40;92.90
76211;DHT22;65003;49.518;11.280;2023-08-01T15:59:17;20.40;93.10
76211;DHT22;65003;49.518;11.280;2023-08-01T16:01:44;20.40;93.10
76211;DHT22;65003;49.518;11.280;2023-08-01T16:04:11;20.50;93.10
76211;DHT22;65003;49.518;11.280;2023-08-01T16:12:11;20.70;92.30
76211;DHT22;65003;49.518;11.280;2023-08-01T16:14:59;20.80;92.20
76211;DHT22;65003;49.518;11.280;2023-08-01T16:17:30;20.90;92.30
76211;DHT22;65003;49.518;11.280;2023-08-01T16:22:53;21.10;91.40
76211;DHT22;65003;49.518;11.280;2023-08-01T16:25:19;21.10;91.10
76211;DHT22;65003;49.518;11.280;2023-08-01T16:33:22;20.90;91.00
76211;DHT22;65003;49.518;11.280;2023-08-01T16:41:41;20.80;90.00
76211;DHT22;65003;49.518;11.280;2023-08-01T16:46:52;20.60;88.30
76211;DHT22;65003;49.518;11.280;2023-08-01T16:49:47;20.60;89.10
76211;DHT22;65003;49.518;11.280;2023-08-01T16:52:20;20.70;88.60
76211;DHT22;65003;49.518;11.280;2023-08-01T16:57:59;20.80;86.70
76211;DHT22;65003;49.518;11.280;2023-08-01T17:00:46;20.80;87.80
76211;DHT22;65003;49.518;11.280;2023-08-01T17:03:27;20.80;87.80
76211;DHT22;65003;49.518;11.280;2023-08-01T17:06:23;20.70;87.30
76211;DHT22;65003;49.518;11.280;2023-08-01T17:11:43;20.50;87.10
76211;DHT22;65003;49.518;11.280;2023-08-01T17:14:14;20.60;86.80
76211;DHT22;65003;49.518;11.280;2023-08-01T17:16:41;20.60;87.00
76211;DHT22;65003;49.518;11.280;2023-08-01T17:19:25;20.70;87.20
76211;DHT22;65003;49.518;11.280;2023-08-01T17:24:51;20.80;87.60
76211;DHT22;65003;49.518;11.280;2023-08-01T17:27:20;20.80;88.50
76211;DHT22;65003;49.518;11.280;2023-08-01T17:38:17;20.50;91.00
76211;DHT22;65003;49.518;11.280;2023-08-01T17:40:44;20.50;91.40
76211;DHT22;65003;49.518;11.280;2023-08-01T17:45:57;20.40;91.50
76211;DHT22;65003;49.518;11.280;2023-08-01T17:48:25;20.40;91.60
76211;DHT22;65003;49.518;11.280;2023-08-01T17:50:52;20.40;91.70
76211;DHT22;65003;49.518;11.280;2023-08-01T17:56:11;20.20;92.30
76211;DHT22;65003;49.518;11.280;2023-08-01T18:01:33;20.20;92.80
76211;DHT22;65003;49.518;11.280;2023-08-01T18:04:00;20.10;92.50
76211;DHT22;65003;49.518;11.280;2023-08-01T18:06:27;20.10;92.30
76211;DHT22;65003;49.518;11.280;2023-08-01T18:14:33;18.80;96.20
76211;DHT22;65003;49.518;11.280;2023-08-01T18:19:57;18.00;97.90
76211;DHT22;65003;49.518;11.280;2023-08-01T18:22:28;17.60;99.10
76211;DHT22;65003;49.518;11.280;2023-08-01T18:24:55;17.50;99.90
76211;DHT22;65003;49.518;11.280;2023-08-01T18:27:41;17.30;99.90
76211;DHT22;65003;49.518;11.280;2023-08-01T18:35:52;17.10;99.90
76211;DHT22;65003;49.518;11.280;2023-08-01T18:43:59;16.90;99.90
76211;DHT22;65003;49.518;11.280;2023-08-01T18:46:26;16.80;99.90
76211;DHT22;65003;49.518;11.280;2023-08-01T18:51:38;16.80;99.90
76211;DHT22;65003;49.518;11.280;2023-08-01T19:02:19;16.50;99.90
76211;DHT22;65003;49.518;11.280;2023-08-01T19:05:27;16.50;99.90
76211;DHT22;65003;49.518;11.280;2023-08-01T19:08:12;16.40;99.90
76211;DHT22;65003;49.518;11.280;2023-08-01T19:13:29;16.50;99.90
76211;DHT22;65003;49.518;11.280;2023-08-01T19:15:55;16.50;99.90
76211;DHT22;65003;49.518;11.280;2023-08-01T19:21:05;16.60;99.90
76211;DHT22;65003;49.518;11.280;2023-08-01T19:23:39;16.40;99.90
76211;DHT22;65003;49.518;11.280;2023-08-01T19:26:06;16.40;99.90
76211;DHT22;65003;49.518;11.280;2023-08-01T19:28:32;16.40;99.90
76211;DHT22;65003;49.518;11.280;2023-08-01T19:33:46;16.30;99.90
76211;DHT22;65003;49.518;11.280;2023-08-01T19:36:15;16.30;99.90
76211;DHT22;65003;49.518;11.280;2023-08-01T19:38:45;16.30;99.90
76211;DHT22;65003;49.518;11.280;2023-08-01T19:44:00;16.40;99.90
76211;DHT22;65003;49.518;11.280;2023-08-01T19:46:30;16.40;99.90
76211;DHT22;65003;49.518;11.280;2023-08-01T19:49:00;16.40;99.90
76211;DHT22;65003;49.518;11.280;2023-08-01T19:51:26;16.40;99.90
76211;DHT22;65003;49.518;11.280;2023-08-01T19:56:43;16.40;99.90
76211;DHT22;65003;49.518;11.280;2023-08-01T19:59:24;16.40;99.90
76211;DHT22;65003;49.518;11.280;2023-08-01T20:01:54;16.40;99.90
76211;DHT22;65003;49.518;11.280;2023-08-01T20:04:21;16.50;99.90
76211;DHT22;65003;49.518;11.280;2023-08-01T20:12:16;16.50;99.90
76211;DHT22;65003;49.518;11.280;2023-08-01T20:14:50;16.50;99.90
76211;DHT22;65003;49.518;11.280;2023-08-01T20:20:03;16.50;99.90
76211;DHT22;65003;49.518;11.280;2023-08-01T20:22:29;16.40;99.90
76211;DHT22;65003;49.518;11.280;2023-08-01T20:24:56;16.40;99.90
76211;DHT22;65003;49.518;11.280;2023-08-01T20:27:23;16.40;99.90
76211;DHT22;65003;49.518;11.280;2023-08-01T20:29:50;16.40;99.90
76211;DHT22;65003;49.518;11.280;2023-08-01T20:32:16;17.30;99.90
76211;DHT22;65003;49.518;11.280;2023-08-01T20:34:42;16.40;99.90
76211;DHT22;65003;49.518;11.280;2023-08-01T20:37:09;16.40;99.90
76211;DHT22;65003;49.518;11.280;2023-08-01T20:39:35;16.40;99.90
76211;DHT22;65003;49.518;11.280;2023-08-01T20:42:02;16.40;99.90
76211;DHT22;65003;49.518;11.280;2023-08-01T20:44:30;16.70;99.90
76211;DHT22;65003;49.518;11.280;2023-08-01T20:46:56;16.50;99.90
76211;DHT22;65003;49.518;11.280;2023-08-01T20:49:22;16.60;99.90
76211;DHT22;65003;49.518;11.280;2023-08-01T20:51:49;16.60;99.90
76211;DHT22;65003;49.518;11.280;2023-08-01T20:54:15;16.70;99.90
76211;DHT22;65003;49.518;11.280;2023-08-01T20:56:44;16.70;99.90
76211;DHT22;65003;49.518;11.280;2023-08-01T20:59:09;16.60;99.90
76211;DHT22;65003;49.518;11.280;2023-08-01T21:01:35;16.60;99.90
76211;DHT22;65003;49.518;11.280;2023-08-01T21:04:02;16.50;99.90
76211;DHT22;65003;49.518;11.280;2023-08-01T21:06:28;16.50;99.90
76211;DHT22;65003;49.518;11.280;2023-08-01T21:08:55;16.50;99.90
76211;DHT22;65003;49.518;11.280;2023-08-01T21:11:22;16.50;99.90
76211;DHT22;65003;49.518;11.280;2023-08-01T21:13:48;16.80;99.90
76211;DHT22;65003;49.518;11.280;2023-08-01T21:16:15;16.40;99.90
76211;DHT22;65003;49.518;11.280;2023-08-01T21:18:41;16.40;99.90
76211;DHT22;65003;49.518;11.280;2023-08-01T21:21:08;16.40;99.90
76211;DHT22;65003;49.518;11.280;2023-08-01T21:23:35;16.40;99.90
76211;DHT22;65003;49.518;11.280;2023-08-01T21:26:01;16.40;99.90
76211;DHT22;65003;49.518;11.280;2023-08-01T21:28:28;16.50;99.90
76211;DHT22;65003;49.518;11.280;2023-08-01T21:30:55;16.50;99.90
76211;DHT22;65003;49.518;11.280;2023-08-01T21:33:21;16.50;99.90
76211;DHT22;65003;49.518;11.280;2023-08-01T21:35:51;16.50;99.90
76211;DHT22;65003;49.518;11.280;2023-08-01T21:38:18;16.50;99.90
76211;DHT22;65003;49.518;11.280;2023-08-01T21:40:45;16.50;99.90
76211;DHT22;65003;49.518;11.280;2023-08-01T21:43:11;16.50;99.90
76211;DHT22;65003;49.518;11.280;2023-08-01T21:45:38;16.50;99.90
76211;DHT22;65003;49.518;11.280;2023-08-01T21:48:05;16.60;99.90
76211;DHT22;65003;49.518;11.280;2023-08-01T21:50:31;16.60;99.90